Time;durP1;ratioP1;P1;durP2;ratioP2;P2;SDS_P1;SDS_P2;PMS_P1;PMS_P2;Temp;Humidity;BMP_temperature;BMP_pressure;BME280_temperature;BME280_humidity;BME280_pressure;Samples;Min_cycle;Max_cycle;Signal;HPM_P1;HPM_P2
2019/08/28 00:00:48;;;;;;;12;10.8;;;;;;;21.23;72.00684;961.4764;;;;
2019/08/28 00:03:13;;;;;;;11.5;10.4;;;;;;;21.22;72.71289;961.495;;;;
2019/08/28 00:05:38;;;;;;;12.2;10.9;;;;;;;21.23;72.50195;961.5478;;;;
2019/08/28 00:08:03;;;;;;;11.4;10.3;;;;;;;21.2;73.59473;961.54;;;;
2019/08/28 00:10:28;;;;;;;12.1;10.3;;;;;;;21.27;72.90918;961.5721;;;;
2019/08/28 00:12:53;;;;;;;11;9.9;;;;;;;21.22;72.91309;961.5828;;;;
2019/08/28 00:15:18;;;;;;;11.9;10.7;;;;;;;21.15;71.8623;961.5725;;;;
2019/08/28 00:17:44;;;;;;;11.3;10;;;;;;;21.05;73.44141;961.6273;;;;
2019/08/28 00:20:09;;;;;;;11.6;10.4;;;;;;;21.03;74.30762;961.5806;;;;
2019/08/28 00:22:34;;;;;;;12.1;11;;;;;;;20.9;74.38086;961.5144;;;;
2019/08/28 00:25:00;;;;;;;11.9;10.7;;;;;;;20.85;74.37305;961.4979;;;;
2019/08/28 00:27:25;;;;;;;12.2;11;;;;;;;20.92;73.86621;961.4741;;;;
2019/08/28 00:30:17;;;;;;;12.2;11;;;;;;;20.94;74.11523;961.508;;;;
2019/08/28 00:32:16;;;;;;;13.3;11.3;;;;;;;20.84;75.36133;961.4721;;;;
2019/08/28 00:34:41;;;;;;;11.7;10.6;;;;;;;20.8;74.88281;961.4292;;;;
2019/08/28 00:37:06;;;;;;;12.3;11;;;;;;;20.76;74.73535;961.3876;;;;
2019/08/28 00:39:32;;;;;;;11.8;10.7;;;;;;;20.77;75.3125;961.3702;;;;
2019/08/28 00:41:57;;;;;;;11.9;10.7;;;;;;;20.74;75.03809;961.4442;;;;
2019/08/28 00:44:23;;;;;;;12.5;11.3;;;;;;;20.67;75.06152;961.4456;;;;
2019/08/28 00:46:48;;;;;;;12.6;11.3;;;;;;;20.58;75.95117;961.4495;;;;
2019/08/28 00:49:14;;;;;;;11.6;10.4;;;;;;;20.43;76.78613;961.4573;;;;
2019/08/28 00:51:39;;;;;;;11.7;10.5;;;;;;;20.34;77.58301;961.4749;;;;
2019/08/28 00:54:05;;;;;;;11.7;10.7;;;;;;;20.38;77.08398;961.4401;;;;
2019/08/28 00:56:30;;;;;;;11.4;10.3;;;;;;;20.43;77.24512;961.3845;;;;
2019/08/28 00:58:55;;;;;;;11.4;10.2;;;;;;;20.41;77.00488;961.3661;;;;
2019/08/28 01:01:20;;;;;;;11.8;10.7;;;;;;;20.4;77.50977;961.3536;;;;
2019/08/28 01:03:46;;;;;;;11.9;10.7;;;;;;;20.31;78.07031;961.2988;;;;
2019/08/28 01:06:11;;;;;;;12.7;11.5;;;;;;;20.23;77.08105;961.3308;;;;
2019/08/28 01:08:36;;;;;;;12.1;10.9;;;;;;;20.3;76.44629;961.4205;;;;
2019/08/28 01:11:02;;;;;;;12.6;10.9;;;;;;;20.34;77.21777;961.4508;;;;
2019/08/28 01:13:27;;;;;;;12;10.7;;;;;;;20.31;77.98828;961.4817;;;;
2019/08/28 01:15:52;;;;;;;11.9;10.7;;;;;;;20.35;77.61914;961.507;;;;
2019/08/28 01:18:18;;;;;;;13.4;12;;;;;;;20.25;78.0498;961.4771;;;;
2019/08/28 01:20:43;;;;;;;12.7;11.4;;;;;;;20.32;77.23828;961.485;;;;
2019/08/28 01:23:08;;;;;;;12.4;11.3;;;;;;;20.22;78.1377;961.4989;;;;
2019/08/28 01:25:34;;;;;;;12.9;11.7;;;;;;;20.26;78.41406;961.4728;;;;
2019/08/28 01:27:59;;;;;;;12.2;11.1;;;;;;;20.17;77.70605;961.5197;;;;
2019/08/28 01:30:31;;;;;;;11.9;10.7;;;;;;;20.12;78.46094;961.5154;;;;
2019/08/28 01:32:57;;;;;;;13;11.8;;;;;;;20.08;79.14844;961.6228;;;;
2019/08/28 01:35:24;;;;;;;12.4;11.3;;;;;;;19.91;79.23438;961.6005;;;;
2019/08/28 01:37:41;;;;;;;13.5;12.1;;;;;;;19.83;79.50293;961.6091;;;;
2019/08/28 01:40:06;;;;;;;13.7;12.3;;;;;;;19.88;77.37305;961.6545;;;;
2019/08/28 01:42:31;;;;;;;14.5;11.7;;;;;;;19.99;77.22754;961.6697;;;;
2019/08/28 01:44:56;;;;;;;12.2;11;;;;;;;20.08;77.8418;961.6552;;;;
2019/08/28 01:47:22;;;;;;;12.3;11.1;;;;;;;20.02;78.25488;961.6303;;;;
2019/08/28 01:49:47;;;;;;;12.7;11.5;;;;;;;19.93;77.75781;961.6333;;;;
2019/08/28 01:52:12;;;;;;;12;10.9;;;;;;;20.02;77.92578;961.613;;;;
2019/08/28 01:54:38;;;;;;;12.8;11.6;;;;;;;20.01;77.40723;961.6394;;;;
2019/08/28 01:57:03;;;;;;;14.4;11.7;;;;;;;19.99;77.5332;961.6689;;;;
2019/08/28 01:59:28;;;;;;;12.3;11.1;;;;;;;19.99;78.27246;961.6912;;;;
2019/08/28 02:01:53;;;;;;;12.1;10.9;;;;;;;19.91;78.31738;961.6766;;;;
2019/08/28 02:04:18;;;;;;;12.8;11.5;;;;;;;19.9;78.35059;961.6057;;;;
2019/08/28 02:06:44;;;;;;;12.7;11.5;;;;;;;19.95;77.81934;961.5675;;;;
2019/08/28 02:09:09;;;;;;;14;12.5;;;;;;;19.84;76.56641;961.5709;;;;
2019/08/28 02:11:34;;;;;;;13.2;11.9;;;;;;;19.8;77.05176;961.5747;;;;
2019/08/28 02:14:00;;;;;;;13.3;11.9;;;;;;;19.82;77.00781;961.5744;;;;
2019/08/28 02:16:25;;;;;;;14;12.5;;;;;;;19.75;77.6084;961.553;;;;
2019/08/28 02:18:50;;;;;;;12.9;11.7;;;;;;;19.74;76.97168;961.6067;;;;
2019/08/28 02:21:16;;;;;;;12.5;11.3;;;;;;;19.72;77.64941;961.6512;;;;
2019/08/28 02:23:41;;;;;;;12.3;10.6;;;;;;;19.8;77.96875;961.616;;;;
2019/08/28 02:26:06;;;;;;;12.5;11.3;;;;;;;19.79;77.53418;961.5689;;;;
2019/08/28 02:28:31;;;;;;;11.9;10.7;;;;;;;19.8;77.43945;961.6002;;;;
2019/08/28 02:30:56;;;;;;;12;10.9;;;;;;;19.72;78.4248;961.5974;;;;
2019/08/28 02:33:22;;;;;;;12.3;11.1;;;;;;;19.62;78.91406;961.57;;;;
2019/08/28 02:35:47;;;;;;;11.2;10.2;;;;;;;19.58;78.58887;961.5995;;;;
2019/08/28 02:38:13;;;;;;;12;10.8;;;;;;;19.61;79.26367;961.5578;;;;
2019/08/28 02:40:38;;;;;;;11.8;10.7;;;;;;;19.67;78.96875;961.5648;;;;
2019/08/28 02:43:03;;;;;;;12.6;11.3;;;;;;;19.67;77.96973;961.5574;;;;
2019/08/28 02:45:28;;;;;;;12.3;11.2;;;;;;;19.55;79.32422;961.5561;;;;
2019/08/28 02:47:54;;;;;;;12.1;11;;;;;;;19.56;79.36133;961.574;;;;
2019/08/28 02:50:19;;;;;;;11.7;10.5;;;;;;;19.53;79.21387;961.5475;;;;
2019/08/28 02:52:45;;;;;;;12.5;11.3;;;;;;;19.63;78.18555;961.6181;;;;
2019/08/28 02:55:10;;;;;;;12.1;11;;;;;;;19.57;79.59766;961.5848;;;;
2019/08/28 02:57:36;;;;;;;12.3;11;;;;;;;19.6;79.61426;961.6764;;;;
2019/08/28 03:00:01;;;;;;;11.1;10.1;;;;;;;19.67;79.02734;961.7286;;;;
2019/08/28 03:02:26;;;;;;;12.2;10.9;;;;;;;19.62;79.28809;961.7206;;;;
2019/08/28 03:04:51;;;;;;;10.9;9.9;;;;;;;19.64;78.89258;961.6891;;;;
2019/08/28 03:07:16;;;;;;;11.1;10.1;;;;;;;19.62;79.1123;961.6652;;;;
2019/08/28 03:09:42;;;;;;;12.4;11.1;;;;;;;19.6;79.26172;961.635;;;;
2019/08/28 03:12:07;;;;;;;11.4;10.2;;;;;;;19.56;79.71387;961.5823;;;;
2019/08/28 03:14:33;;;;;;;11.6;10.5;;;;;;;19.64;78.92773;961.5633;;;;
2019/08/28 03:16:58;;;;;;;11.7;10.5;;;;;;;19.71;78.29395;961.5609;;;;
2019/08/28 03:19:24;;;;;;;12.4;11.2;;;;;;;19.67;78.79102;961.6038;;;;
2019/08/28 03:21:49;;;;;;;11.5;10.4;;;;;;;19.66;78.20313;961.6337;;;;
2019/08/28 03:24:14;;;;;;;11.3;10.2;;;;;;;19.71;76.99121;961.6008;;;;
2019/08/28 03:26:39;;;;;;;11.4;10.3;;;;;;;19.72;77.91895;961.5544;;;;
2019/08/28 03:29:05;;;;;;;11.6;10.4;;;;;;;19.81;77.76074;961.5985;;;;
2019/08/28 03:31:30;;;;;;;11.9;10.8;;;;;;;19.68;78.25391;961.5737;;;;
2019/08/28 03:33:56;;;;;;;12.4;11.1;;;;;;;19.78;77.7207;961.5767;;;;
2019/08/28 03:36:21;;;;;;;12.3;11;;;;;;;19.69;78.04395;961.563;;;;
2019/08/28 03:38:47;;;;;;;12.5;11.3;;;;;;;19.54;78.73535;961.5662;;;;
2019/08/28 03:41:12;;;;;;;11.7;10.5;;;;;;;19.55;77.77344;961.5751;;;;
2019/08/28 03:43:37;;;;;;;11.4;10.2;;;;;;;19.62;78.11523;961.5865;;;;
2019/08/28 03:46:02;;;;;;;11.5;10.4;;;;;;;19.59;78.22754;961.5963;;;;
2019/08/28 03:48:27;;;;;;;11.3;10.1;;;;;;;19.53;78.69629;961.596;;;;
2019/08/28 03:50:53;;;;;;;11.4;10.2;;;;;;;19.58;78.06055;961.6583;;;;
2019/08/28 03:53:18;;;;;;;11.6;10.4;;;;;;;19.5;77.75195;961.6651;;;;
2019/08/28 03:55:43;;;;;;;11.2;10.2;;;;;;;19.48;77.59473;961.6713;;;;
2019/08/28 03:58:08;;;;;;;11.7;10.2;;;;;;;19.47;77.79395;961.7166;;;;
2019/08/28 04:02:27;;;;;;;10.8;9.8;;;;;;;19.53;76.04199;961.7433;;;;
2019/08/28 04:04:52;;;;;;;11.9;10.6;;;;;;;19.38;77.68262;961.7698;;;;
2019/08/28 04:07:17;;;;;;;11.4;10.4;;;;;;;19.45;76.62695;961.7536;;;;
2019/08/28 04:09:42;;;;;;;11;10;;;;;;;19.54;76.6084;961.6729;;;;
2019/08/28 04:12:07;;;;;;;10.3;9.3;;;;;;;19.46;76.83984;961.7665;;;;
2019/08/28 04:14:33;;;;;;;11;9.9;;;;;;;19.41;75.79688;961.7852;;;;
2019/08/28 04:17:02;;;;;;;10.5;9.5;;;;;;;19.43;76.63379;961.7455;;;;
2019/08/28 04:19:28;;;;;;;10.7;9.7;;;;;;;19.36;76.29395;961.8166;;;;
2019/08/28 04:21:51;;;;;;;10.4;9.5;;;;;;;19.42;76.43457;961.7952;;;;
2019/08/28 04:24:13;;;;;;;11.4;10.3;;;;;;;19.48;76.57324;961.8011;;;;
2019/08/28 04:26:39;;;;;;;11.8;9.5;;;;;;;19.53;75.95996;961.7795;;;;
2019/08/28 04:29:04;;;;;;;11.7;9.6;;;;;;;19.64;75.40234;961.8173;;;;
2019/08/28 04:31:29;;;;;;;10.6;9.6;;;;;;;19.52;76.53516;961.8823;;;;
2019/08/28 04:33:54;;;;;;;10.3;9.2;;;;;;;19.54;75.75;961.8806;;;;
2019/08/28 04:36:19;;;;;;;10.6;9.5;;;;;;;19.55;76.08008;961.8755;;;;
2019/08/28 04:38:44;;;;;;;14.8;13.3;;;;;;;19.54;76.24414;961.9169;;;;
2019/08/28 04:41:09;;;;;;;11.4;10.3;;;;;;;19.52;76.24023;961.9543;;;;
2019/08/28 04:43:34;;;;;;;10.6;9.6;;;;;;;19.54;75.66895;961.9863;;;;
2019/08/28 04:46:00;;;;;;;10.1;9.1;;;;;;;19.46;76.99414;961.992;;;;
2019/08/28 04:48:25;;;;;;;10.8;9.7;;;;;;;19.43;75.76465;961.9637;;;;
2019/08/28 04:50:50;;;;;;;11.4;9.6;;;;;;;19.44;74.54785;962.0444;;;;
2019/08/28 04:53:15;;;;;;;10.8;9.7;;;;;;;19.45;74.5498;962.0948;;;;
2019/08/28 04:55:40;;;;;;;10.9;9.4;;;;;;;19.49;74.5791;962.0447;;;;
2019/08/28 04:58:05;;;;;;;10.2;9.1;;;;;;;19.53;75.2666;962.0103;;;;
2019/08/28 05:00:31;;;;;;;10.3;9.2;;;;;;;19.51;74.84082;962.0115;;;;
2019/08/28 05:02:56;;;;;;;10.4;9.3;;;;;;;19.51;74.52344;962.0223;;;;
2019/08/28 05:05:21;;;;;;;10.1;9.1;;;;;;;19.56;74.4248;962.0488;;;;
2019/08/28 05:07:46;;;;;;;11;9.5;;;;;;;19.56;75.3418;962.0892;;;;
2019/08/28 05:10:11;;;;;;;10.1;8.9;;;;;;;19.5;75.73145;962.0338;;;;
2019/08/28 05:12:36;;;;;;;10.2;9.2;;;;;;;19.56;74.4248;962.0604;;;;
2019/08/28 05:15:02;;;;;;;11.6;9.5;;;;;;;19.6;73.85645;962.0625;;;;
2019/08/28 05:17:27;;;;;;;10.8;9.5;;;;;;;19.49;74.32031;962.1002;;;;
2019/08/28 05:19:52;;;;;;;11.4;9.3;;;;;;;19.63;73.79102;962.0821;;;;
2019/08/28 05:22:18;;;;;;;10.3;9.2;;;;;;;19.62;74.40039;962.1788;;;;
2019/08/28 05:24:43;;;;;;;11;9.4;;;;;;;19.65;73.07813;962.1869;;;;
2019/08/28 05:27:09;;;;;;;13.9;9.4;;;;;;;19.73;72.97461;962.1875;;;;
2019/08/28 05:29:34;;;;;;;14.6;9.8;;;;;;;19.69;72.74512;962.1881;;;;
2019/08/28 05:31:59;;;;;;;10.3;9.2;;;;;;;19.69;72.87109;962.1742;;;;
2019/08/28 05:34:24;;;;;;;12.5;9.2;;;;;;;19.77;72.78027;962.063;;;;
2019/08/28 05:36:50;;;;;;;11;9.3;;;;;;;19.85;73.58105;962.0811;;;;
2019/08/28 05:39:15;;;;;;;10.6;9.2;;;;;;;19.84;73.32129;962.0027;;;;
2019/08/28 05:41:41;;;;;;;10.2;9.1;;;;;;;19.85;73.24023;962.0555;;;;
2019/08/28 05:44:06;;;;;;;12.3;8.8;;;;;;;19.85;73.4873;962.0769;;;;
2019/08/28 05:46:31;;;;;;;10.2;8.8;;;;;;;19.85;73.42871;962.0661;;;;
2019/08/28 05:48:57;;;;;;;9.6;8.5;;;;;;;19.93;73.66504;962.0594;;;;
2019/08/28 05:51:22;;;;;;;11.6;8.5;;;;;;;20.04;73.77734;962.1074;;;;
2019/08/28 05:53:47;;;;;;;10.7;8.8;;;;;;;20.06;71.74609;962.1105;;;;
2019/08/28 05:56:13;;;;;;;10.4;9.1;;;;;;;20.11;71.63672;962.1041;;;;
2019/08/28 05:58:38;;;;;;;10.3;8.4;;;;;;;20.17;71.09375;962.1016;;;;
2019/08/28 06:01:03;;;;;;;9.8;8.8;;;;;;;20.32;70.90625;962.0736;;;;
2019/08/28 06:03:28;;;;;;;9.2;8.3;;;;;;;20.39;71.83496;962.032;;;;
2019/08/28 06:05:53;;;;;;;10.3;8.4;;;;;;;20.36;72.38379;962.0795;;;;
2019/08/28 06:08:18;;;;;;;10.5;9;;;;;;;20.4;70.36523;962.0441;;;;
2019/08/28 06:10:44;;;;;;;12.5;8.8;;;;;;;20.47;70.07031;962.0259;;;;
2019/08/28 06:13:09;;;;;;;10.4;9.3;;;;;;;20.47;70.18652;962.0516;;;;
2019/08/28 06:15:34;;;;;;;9.6;8.7;;;;;;;20.47;70.36328;962.0764;;;;
2019/08/28 06:17:59;;;;;;;14;9.4;;;;;;;20.45;73.21094;962.0625;;;;
2019/08/28 06:20:24;;;;;;;10.1;9.1;;;;;;;20.54;70.90625;962.1548;;;;
2019/08/28 06:22:49;;;;;;;13.2;9.1;;;;;;;20.69;68.80957;962.1682;;;;
2019/08/28 06:25:15;;;;;;;10.6;9.4;;;;;;;20.75;68.44238;962.1721;;;;
2019/08/28 06:27:40;;;;;;;12;9.3;;;;;;;20.56;69.20117;962.1448;;;;
2019/08/28 06:30:05;;;;;;;10.1;9.1;;;;;;;20.6;69.50293;962.1597;;;;
2019/08/28 06:32:30;;;;;;;9.6;8.6;;;;;;;20.64;69.62598;962.1608;;;;
2019/08/28 06:34:55;;;;;;;12.5;9.4;;;;;;;20.73;69.52246;962.1948;;;;
2019/08/28 06:37:20;;;;;;;10.3;9.2;;;;;;;20.73;69.14648;962.1511;;;;
2019/08/28 06:39:45;;;;;;;11.1;8.8;;;;;;;20.84;69.44629;962.1772;;;;
2019/08/28 06:42:10;;;;;;;10.9;8.6;;;;;;;20.88;68.62695;962.166;;;;
2019/08/28 06:44:35;;;;;;;9.9;8.9;;;;;;;20.92;68.75098;962.1538;;;;
2019/08/28 06:47:00;;;;;;;11.9;9.1;;;;;;;20.95;68.95605;962.1507;;;;
2019/08/28 06:49:25;;;;;;;9.2;8.3;;;;;;;21.01;68.15137;962.1379;;;;
2019/08/28 06:51:53;;;;;;;9.3;7.9;;;;;;;21.06;67.8418;962.0941;;;;
2019/08/28 06:59:27;;;;;;;9.1;8.1;;;;;;;21.26;67.50781;962.2046;;;;
2019/08/28 07:01:31;;;;;;;10;8.4;;;;;;;21.26;67.57813;962.2046;;;;
2019/08/28 07:03:56;;;;;;;10.2;8.4;;;;;;;21.32;67.13867;962.2425;;;;
2019/08/28 07:06:21;;;;;;;10.1;8.5;;;;;;;21.33;67.41113;962.2234;;;;
2019/08/28 07:08:46;;;;;;;8.9;8;;;;;;;21.29;67.44043;962.2372;;;;
2019/08/28 07:11:11;;;;;;;9.6;8.4;;;;;;;21.32;67.30371;962.2584;;;;
2019/08/28 07:13:36;;;;;;;9.1;8.2;;;;;;;21.34;67.37793;962.2645;;;;
2019/08/28 07:16:01;;;;;;;8.9;8;;;;;;;21.39;68.12695;962.2349;;;;
2019/08/28 07:18:26;;;;;;;8.7;7.9;;;;;;;21.5;68.62891;962.2751;;;;
2019/08/28 07:20:52;;;;;;;11.1;8.5;;;;;;;21.55;67.5752;962.2724;;;;
2019/08/28 07:23:17;;;;;;;8.9;8;;;;;;;21.65;67.95605;962.3176;;;;
2019/08/28 07:25:43;;;;;;;8.9;8;;;;;;;21.61;69.55566;962.2778;;;;
2019/08/28 07:28:08;;;;;;;9.8;8.4;;;;;;;21.66;68.44141;962.272;;;;
2019/08/28 07:30:34;;;;;;;10.5;8.5;;;;;;;21.85;66.74609;962.3004;;;;
2019/08/28 07:32:59;;;;;;;8.9;8.1;;;;;;;21.87;67.13867;962.3102;;;;
2019/08/28 07:35:24;;;;;;;9.2;8.3;;;;;;;21.82;68.27734;962.2671;;;;
2019/08/28 07:37:49;;;;;;;9.8;8.5;;;;;;;21.72;70.31641;962.3223;;;;
2019/08/28 07:40:15;;;;;;;9;8.1;;;;;;;21.75;69.68262;962.3017;;;;
2019/08/28 07:42:40;;;;;;;9.6;8.4;;;;;;;21.81;67.93359;962.3113;;;;
2019/08/28 07:45:06;;;;;;;11.2;8.7;;;;;;;21.83;67.86523;962.3;;;;
2019/08/28 07:47:31;;;;;;;9.4;8.5;;;;;;;21.88;67.6709;962.3364;;;;
2019/08/28 07:49:56;;;;;;;9.8;8.6;;;;;;;22.04;67.48438;962.3386;;;;
2019/08/28 07:52:21;;;;;;;9.3;8.4;;;;;;;21.98;68.20703;962.392;;;;
2019/08/28 07:54:47;;;;;;;9.7;8.7;;;;;;;22.01;68.63672;962.3434;;;;
2019/08/28 07:57:12;;;;;;;9.5;8.3;;;;;;;22.04;68.57129;962.3195;;;;
2019/08/28 07:59:37;;;;;;;9.6;8.7;;;;;;;22.04;67.77832;962.2766;;;;
2019/08/28 08:02:02;;;;;;;10.6;8.8;;;;;;;22.07;67.97168;962.3157;;;;
2019/08/28 08:04:28;;;;;;;10.1;8.7;;;;;;;22.26;68.09668;962.3069;;;;
2019/08/28 08:06:53;;;;;;;9.4;8.5;;;;;;;22.34;67.39941;962.2541;;;;
2019/08/28 08:09:18;;;;;;;10.2;9.2;;;;;;;22.37;67.41504;962.222;;;;
2019/08/28 08:11:43;;;;;;;9.3;8.4;;;;;;;22.42;67.79004;962.2;;;;
2019/08/28 08:14:09;;;;;;;9.6;8.6;;;;;;;22.51;67.86133;962.2281;;;;
2019/08/28 08:16:34;;;;;;;10.2;9.2;;;;;;;22.55;67.19434;962.2285;;;;
2019/08/28 08:19:00;;;;;;;10.2;9.1;;;;;;;22.61;69.26172;962.1955;;;;
2019/08/28 08:21:25;;;;;;;9.7;8.7;;;;;;;22.71;67.34863;962.2639;;;;
2019/08/28 08:23:50;;;;;;;9.9;8.9;;;;;;;22.9;66.95117;962.251;;;;
2019/08/28 08:26:15;;;;;;;10.6;9;;;;;;;22.9;66.52637;962.2732;;;;
2019/08/28 08:28:40;;;;;;;9.9;8.9;;;;;;;22.85;67.96191;962.2978;;;;
2019/08/28 08:31:06;;;;;;;11.9;9.4;;;;;;;22.93;66.22266;962.2859;;;;
2019/08/28 08:33:31;;;;;;;10;8.4;;;;;;;23.11;66.40332;962.275;;;;
2019/08/28 08:35:56;;;;;;;10.3;9.2;;;;;;;23.1;66.37793;962.3035;;;;
2019/08/28 08:38:22;;;;;;;10.2;9.1;;;;;;;23.16;66.04395;962.3087;;;;
2019/08/28 08:40:56;;;;;;;10.3;9.3;;;;;;;23.15;65.4375;962.3561;;;;
2019/08/28 08:43:15;;;;;;;9.9;9;;;;;;;23.19;66.16602;962.4144;;;;
2019/08/28 08:45:37;;;;;;;9.3;8.4;;;;;;;23.34;66.39063;962.4162;;;;
2019/08/28 08:48:03;;;;;;;12;9.2;;;;;;;23.41;65.59375;962.3661;;;;
2019/08/28 08:50:28;;;;;;;10.4;9.4;;;;;;;23.47;65.24902;962.3576;;;;
2019/08/28 08:52:53;;;;;;;10;9.1;;;;;;;23.46;65.3291;962.3131;;;;
2019/08/28 08:55:18;;;;;;;10.2;9.2;;;;;;;23.58;65.29883;962.2924;;;;
2019/08/28 08:57:44;;;;;;;9.9;8.9;;;;;;;23.58;64.8125;962.2717;;;;
2019/08/28 09:00:09;;;;;;;9.7;8.8;;;;;;;23.58;64.89746;962.2339;;;;
2019/08/28 09:02:34;;;;;;;10.2;9.2;;;;;;;23.52;64.81641;962.185;;;;
2019/08/28 09:04:59;;;;;;;10.3;8.9;;;;;;;23.52;65.21973;962.2241;;;;
2019/08/28 09:07:24;;;;;;;10.5;9.4;;;;;;;23.61;65.03027;962.2519;;;;
2019/08/28 09:09:50;;;;;;;10;9.1;;;;;;;23.58;65.45313;962.2375;;;;
2019/08/28 09:12:15;;;;;;;10.3;8.8;;;;;;;23.66;65.82031;962.2276;;;;
2019/08/28 09:14:40;;;;;;;11;8.4;;;;;;;23.71;65.98242;962.2291;;;;
2019/08/28 09:17:05;;;;;;;9.8;8.6;;;;;;;23.81;65.68848;962.2028;;;;
2019/08/28 09:19:30;;;;;;;9.8;8.9;;;;;;;23.93;65.39746;962.226;;;;
2019/08/28 09:21:55;;;;;;;10;9;;;;;;;23.85;64.70996;962.2011;;;;
2019/08/28 09:24:20;;;;;;;10.1;8.7;;;;;;;23.86;65.04395;962.253;;;;
2019/08/28 09:26:46;;;;;;;10.5;9.3;;;;;;;23.83;63.97168;962.218;;;;
2019/08/28 09:29:11;;;;;;;10.5;9.4;;;;;;;23.82;64.40918;962.2626;;;;
2019/08/28 09:31:36;;;;;;;10.5;9.2;;;;;;;23.85;64.94727;962.2708;;;;
2019/08/28 09:34:01;;;;;;;10;9.1;;;;;;;23.87;65.53223;962.2503;;;;
2019/08/28 09:36:26;;;;;;;10.8;9.5;;;;;;;23.91;65.2998;962.2342;;;;
2019/08/28 09:38:52;;;;;;;11.6;9.4;;;;;;;23.99;65.40625;962.2252;;;;
2019/08/28 09:41:17;;;;;;;12.6;9.8;;;;;;;23.97;65.32129;962.2317;;;;
2019/08/28 09:43:42;;;;;;;11.1;9.4;;;;;;;24.19;64.33203;962.1716;;;;
2019/08/28 09:46:07;;;;;;;10.9;9.4;;;;;;;24.15;64.38672;962.1436;;;;
2019/08/28 09:48:32;;;;;;;10.7;9.6;;;;;;;24.14;64.34766;962.1649;;;;
2019/08/28 09:50:58;;;;;;;10.3;9.2;;;;;;;24.18;64.22461;962.1703;;;;
2019/08/28 09:53:23;;;;;;;9.5;8.5;;;;;;;24.23;64.19531;962.1753;;;;
2019/08/28 09:55:48;;;;;;;10.7;9.6;;;;;;;24.33;64.55371;962.1583;;;;
2019/08/28 09:58:14;;;;;;;10;9;;;;;;;24.36;64.66504;962.2274;;;;
2019/08/28 10:00:39;;;;;;;10.5;8.8;;;;;;;24.47;63.49414;962.1625;;;;
2019/08/28 10:03:05;;;;;;;9.4;8.5;;;;;;;24.54;62.95801;962.1602;;;;
2019/08/28 10:05:30;;;;;;;10.1;8.3;;;;;;;24.62;61.67383;962.1912;;;;
2019/08/28 10:07:55;;;;;;;10.4;8.2;;;;;;;24.64;61.92578;962.1403;;;;
2019/08/28 10:10:20;;;;;;;10.7;9;;;;;;;24.66;62.96191;962.1064;;;;
2019/08/28 10:12:46;;;;;;;8.9;8;;;;;;;24.54;64.0625;962.1395;;;;
2019/08/28 10:15:11;;;;;;;11.2;8.5;;;;;;;24.59;63.05859;962.1646;;;;
2019/08/28 10:17:36;;;;;;;8.6;7.7;;;;;;;24.69;60.44629;962.0787;;;;
2019/08/28 10:20:01;;;;;;;9;7.7;;;;;;;24.76;60.5752;962.1139;;;;
2019/08/28 10:22:26;;;;;;;9;7.3;;;;;;;24.82;61.5332;962.1005;;;;
2019/08/28 10:24:51;;;;;;;9.9;7.4;;;;;;;24.94;60.89648;962.0722;;;;
2019/08/28 10:27:16;;;;;;;8.9;7.7;;;;;;;24.84;61.73926;962.0767;;;;
2019/08/28 10:29:41;;;;;;;8.8;7.9;;;;;;;24.64;62.78125;962.011;;;;
2019/08/28 10:32:07;;;;;;;8.9;8;;;;;;;24.56;62.04492;961.9996;;;;
2019/08/28 10:34:32;;;;;;;10.5;8.1;;;;;;;24.68;61.11035;961.9034;;;;
2019/08/28 10:36:57;;;;;;;9.2;8.3;;;;;;;24.52;61.46973;961.8706;;;;
2019/08/28 10:39:22;;;;;;;11.5;8.6;;;;;;;24.62;60.51953;961.8834;;;;
2019/08/28 10:41:48;;;;;;;11.2;8;;;;;;;24.83;61.67871;961.8909;;;;
2019/08/28 10:44:13;;;;;;;8.9;8;;;;;;;24.75;61.46387;961.8828;;;;
2019/08/28 10:46:38;;;;;;;8.6;7.8;;;;;;;24.75;61.34473;961.8111;;;;
2019/08/28 10:49:04;;;;;;;9.3;8.3;;;;;;;24.89;61.6748;961.8063;;;;
2019/08/28 10:51:29;;;;;;;9.7;8.2;;;;;;;24.85;62.41699;961.7551;;;;
2019/08/28 10:53:54;;;;;;;8.6;7.3;;;;;;;24.89;59.27344;961.7003;;;;
2019/08/28 10:56:19;;;;;;;13.4;12;;;;;;;24.99;58.34668;961.655;;;;
2019/08/28 10:58:44;;;;;;;15.9;12;;;;;;;25.2;58.27832;961.6808;;;;
2019/08/28 11:01:09;;;;;;;8.9;8;;;;;;;25.33;57.22461;961.7168;;;;
2019/08/28 11:03:35;;;;;;;9.4;7;;;;;;;25.41;54.5332;961.6716;;;;
2019/08/28 11:06:00;;;;;;;7.5;6.4;;;;;;;25.26;55.60938;961.7125;;;;
2019/08/28 11:08:25;;;;;;;7.9;7.2;;;;;;;25.44;55.10742;961.7413;;;;
2019/08/28 11:10:50;;;;;;;7.9;6.5;;;;;;;25.51;53.96094;961.666;;;;
2019/08/28 11:13:15;;;;;;;9;7.2;;;;;;;25.59;54.33984;961.7285;;;;
2019/08/28 11:15:40;;;;;;;7.7;6.8;;;;;;;25.74;55.69336;961.7151;;;;
2019/08/28 11:18:06;;;;;;;9.4;7.4;;;;;;;25.6;55.65039;961.7072;;;;
2019/08/28 11:20:31;;;;;;;11.8;9.8;;;;;;;25.68;55.79102;961.741;;;;
2019/08/28 11:22:56;;;;;;;8.6;7.1;;;;;;;25.91;55.67773;961.6683;;;;
2019/08/28 11:25:22;;;;;;;9.2;7.4;;;;;;;25.75;55.02734;961.658;;;;
2019/08/28 11:27:47;;;;;;;9.2;7.8;;;;;;;25.75;55.8252;961.6414;;;;
2019/08/28 11:30:12;;;;;;;9.4;7.3;;;;;;;25.89;54.55469;961.6733;;;;
2019/08/28 11:32:37;;;;;;;9.4;7.2;;;;;;;25.92;54.57031;961.6697;;;;
2019/08/28 11:35:03;;;;;;;10;7.8;;;;;;;26.04;54.43066;961.6591;;;;
2019/08/28 11:37:28;;;;;;;7.9;7.1;;;;;;;25.79;55.19922;961.6741;;;;
2019/08/28 11:39:54;;;;;;;8.3;7.2;;;;;;;25.87;54.75391;961.6599;;;;
2019/08/28 11:42:19;;;;;;;10.2;7;;;;;;;25.92;54.32031;961.6497;;;;
2019/08/28 11:44:44;;;;;;;9.4;6.9;;;;;;;26.05;53.90723;961.6387;;;;
2019/08/28 11:47:09;;;;;;;9.1;7;;;;;;;26.07;54.45801;961.6103;;;;
2019/08/28 11:49:34;;;;;;;11.1;7.3;;;;;;;26.08;55.2334;961.6066;;;;
2019/08/28 11:51:59;;;;;;;8.2;7.1;;;;;;;26.22;54.48828;961.5818;;;;
2019/08/28 11:54:24;;;;;;;8.2;7.3;;;;;;;26.31;53.47266;961.5875;;;;
2019/08/28 11:56:50;;;;;;;10.7;8.4;;;;;;;26.35;54.46875;961.5547;;;;
2019/08/28 11:59:15;;;;;;;11.4;8.1;;;;;;;26.35;53.97852;961.5125;;;;
2019/08/28 12:01:40;;;;;;;9.5;8.1;;;;;;;26.53;54.09668;961.4709;;;;
2019/08/28 12:04:05;;;;;;;10.9;9.5;;;;;;;26.57;54.67285;961.4389;;;;
2019/08/28 12:06:30;;;;;;;12.5;11.3;;;;;;;26.36;54.08789;961.399;;;;
2019/08/28 12:08:55;;;;;;;10.1;9.1;;;;;;;26.47;53.6709;961.3904;;;;
2019/08/28 12:11:20;;;;;;;8.5;7.6;;;;;;;26.66;54.18359;961.3582;;;;
2019/08/28 12:13:46;;;;;;;11.3;9.9;;;;;;;26.76;52.7627;961.3453;;;;
2019/08/28 12:16:11;;;;;;;10.1;9;;;;;;;26.81;52.51758;961.3342;;;;
2019/08/28 12:18:36;;;;;;;8.3;7;;;;;;;26.8;54.10352;961.2969;;;;
2019/08/28 12:21:02;;;;;;;8.8;7.2;;;;;;;26.8;52.48047;961.2926;;;;
2019/08/28 12:23:27;;;;;;;9.6;8.6;;;;;;;26.84;53.47656;961.2953;;;;
2019/08/28 12:25:52;;;;;;;8;7;;;;;;;26.84;51.67285;961.2167;;;;
2019/08/28 12:28:17;;;;;;;8.2;7;;;;;;;26.81;51.58691;961.1859;;;;
2019/08/28 12:30:42;;;;;;;9.4;7;;;;;;;26.95;51.26758;961.1574;;;;
2019/08/28 12:33:08;;;;;;;9.3;7.5;;;;;;;27.04;50.42969;961.1902;;;;
2019/08/28 12:35:33;;;;;;;7.8;7;;;;;;;27.13;49.80762;961.2073;;;;
2019/08/28 12:37:58;;;;;;;7.5;6.6;;;;;;;27.12;48.59863;961.1786;;;;
2019/08/28 12:40:23;;;;;;;9;7.3;;;;;;;27.15;49.36621;961.1827;;;;
2019/08/28 12:42:48;;;;;;;9.6;6.4;;;;;;;27.16;47.80273;961.1717;;;;
2019/08/28 12:45:14;;;;;;;6.3;5.7;;;;;;;27.29;46.08301;961.1594;;;;
2019/08/28 12:47:41;;;;;;;7.1;5.8;;;;;;;27.42;46.84961;961.173;;;;
2019/08/28 12:50:04;;;;;;;8.3;6.9;;;;;;;27.35;47.96582;961.1258;;;;
2019/08/28 12:52:29;;;;;;;8.1;7.1;;;;;;;27.46;46.25586;961.1091;;;;
2019/08/28 12:54:54;;;;;;;9.7;7;;;;;;;27.47;46.07813;961.0988;;;;
2019/08/28 12:57:19;;;;;;;8;7.2;;;;;;;27.54;47.08887;961.0754;;;;
2019/08/28 12:59:44;;;;;;;6.2;5.6;;;;;;;27.69;42.97754;961.05;;;;
2019/08/28 13:02:09;;;;;;;6.2;5.6;;;;;;;27.63;43.41504;961.0408;;;;
2019/08/28 13:04:35;;;;;;;6.6;5.7;;;;;;;27.6;44.88281;961.0006;;;;
2019/08/28 13:07:00;;;;;;;10.1;6.1;;;;;;;27.55;45.88184;960.9578;;;;
2019/08/28 13:09:25;;;;;;;9;7.1;;;;;;;27.79;46.0498;960.9402;;;;
2019/08/28 13:11:50;;;;;;;6.5;5.8;;;;;;;27.87;45.83105;960.923;;;;
2019/08/28 13:14:16;;;;;;;9;7.5;;;;;;;27.97;47.43359;960.9384;;;;
2019/08/28 13:16:41;;;;;;;8.4;6.2;;;;;;;28.21;46.09375;960.9395;;;;
2019/08/28 13:19:06;;;;;;;10.8;6.7;;;;;;;28.33;45.29102;960.9044;;;;
2019/08/28 13:21:32;;;;;;;7;6.3;;;;;;;28.31;45.60059;960.905;;;;
2019/08/28 13:23:57;;;;;;;8.6;6.4;;;;;;;28.41;45.37012;960.8762;;;;
2019/08/28 13:26:22;;;;;;;7.9;6.2;;;;;;;28.56;45.27832;960.8286;;;;
2019/08/28 13:28:48;;;;;;;10.1;6.7;;;;;;;28.71;45.28125;960.8914;;;;
2019/08/28 13:31:13;;;;;;;8;6.2;;;;;;;28.81;45.15918;960.8309;;;;
2019/08/28 13:33:39;;;;;;;8.3;5.8;;;;;;;28.94;44.35547;960.7916;;;;
2019/08/28 13:36:04;;;;;;;7.9;5.8;;;;;;;28.85;43.82031;960.8072;;;;
2019/08/28 13:38:29;;;;;;;6.6;5.9;;;;;;;29.04;44.68945;960.7976;;;;
2019/08/28 13:40:54;;;;;;;10.1;8.4;;;;;;;29.01;44.29199;960.717;;;;
2019/08/28 13:43:20;;;;;;;9.7;6.1;;;;;;;29.16;42.72266;960.7784;;;;
2019/08/28 13:45:45;;;;;;;6.6;5.6;;;;;;;29.19;42.47266;960.7475;;;;
2019/08/28 13:48:10;;;;;;;9.5;7.1;;;;;;;29.42;41.53418;960.7293;;;;
2019/08/28 13:50:35;;;;;;;6.7;5.7;;;;;;;29.3;42.54199;960.705;;;;
2019/08/28 13:53:00;;;;;;;7.5;5.2;;;;;;;28.86;41.60059;960.7025;;;;
2019/08/28 13:55:25;;;;;;;9.7;5.7;;;;;;;28.84;41.25195;960.7084;;;;
2019/08/28 13:57:51;;;;;;;6.6;5.7;;;;;;;28.64;43.2002;960.6886;;;;
2019/08/28 14:00:16;;;;;;;9.5;5.3;;;;;;;28.54;42.02734;960.6903;;;;
2019/08/28 14:02:41;;;;;;;7.9;7;;;;;;;28.56;41.7666;960.683;;;;
2019/08/28 14:05:06;;;;;;;10.3;5.2;;;;;;;28.34;41.0498;960.6136;;;;
2019/08/28 14:07:31;;;;;;;7.7;5;;;;;;;28.28;40.97266;960.6116;;;;